Time;durP1;ratioP1;P1;durP2;ratioP2;P2;SDS_P1;SDS_P2;PMS_P1;PMS_P2;Temp;Humidity;BMP_temperature;BMP_pressure;BME280_temperature;BME280_humidity;BME280_pressure;Samples;Min_cycle;Max_cycle;Signal;HPM_P1;HPM_P2
2022/12/10 00:02:07;;;;;;;92.60;42.53;;;0.30;90.90;;;;;;4995730;28;20085;-76
2022/12/10 00:04:33;;;;;;;90.38;44.45;;;0.20;90.90;;;;;;4995386;28;20046;-76
2022/12/10 00:07:01;;;;;;;88.82;41.97;;;0.10;90.90;;;;;;4993588;28;20041;-76
2022/12/10 00:09:26;;;;;;;87.53;43.08;;;0.10;91.00;;;;;;5005701;28;20035;-77
2022/12/10 00:11:55;;;;;;;82.05;42.13;;;0.20;91.20;;;;;;4998462;28;20092;-76
2022/12/10 00:14:23;;;;;;;86.53;41.05;;;0.20;91.20;;;;;;4991388;28;20294;-76
2022/12/10 00:16:51;;;;;;;86.38;40.10;;;0.20;91.20;;;;;;4990086;28;20121;-76
2022/12/10 00:19:17;;;;;;;88.85;43.25;;;0.30;91.30;;;;;;4986672;28;20027;-76
2022/12/10 00:21:46;;;;;;;85.28;41.75;;;0.40;91.30;;;;;;4989166;28;20040;-76
2022/12/10 00:24:11;;;;;;;92.03;42.72;;;0.40;91.30;;;;;;4992095;28;20033;-78
2022/12/10 00:26:42;;;;;;;86.68;41.78;;;0.40;91.20;;;;;;4995039;28;20482;-76
2022/12/10 00:29:11;;;;;;;91.47;41.25;;;0.40;91.40;;;;;;4992422;28;20391;-77
2022/12/10 00:31:37;;;;;;;88.05;41.15;;;0.40;91.40;;;;;;4996675;28;20042;-76
2022/12/10 00:34:06;;;;;;;88.65;41.65;;;0.50;91.40;;;;;;4992256;28;20375;-77
2022/12/10 00:36:50;;;;;;;98.03;43.08;;;0.50;91.40;;;;;;4996019;28;20130;-77
2022/12/10 00:39:27;;;;;;;89.03;42.63;;;0.50;91.30;;;;;;4992109;28;20358;-76
2022/12/10 00:42:01;;;;;;;98.25;45.13;;;0.50;91.40;;;;;;5013816;28;20113;-75
2022/12/10 00:44:34;;;;;;;93.18;42.65;;;0.50;91.40;;;;;;5008303;28;20486;-76
2022/12/10 00:46:59;;;;;;;87.07;41.92;;;0.60;91.40;;;;;;5005721;28;20034;-78
2022/12/10 00:49:30;;;;;;;95.35;44.00;;;0.50;91.40;;;;;;5013050;28;20084;-77
2022/12/10 00:51:59;;;;;;;85.63;42.60;;;0.50;91.40;;;;;;5016753;28;20034;-77
2022/12/10 00:54:24;;;;;;;82.75;40.45;;;0.50;91.60;;;;;;5005271;28;20041;-79
2022/12/10 00:56:50;;;;;;;112.03;47.30;;;0.60;91.60;;;;;;5015824;28;20033;-77
2022/12/10 00:59:18;;;;;;;95.28;42.92;;;0.60;91.70;;;;;;5011815;28;20661;-77
2022/12/10 01:01:44;;;;;;;89.43;43.60;;;0.60;91.60;;;;;;5010020;28;20069;-77
2022/12/10 01:04:15;;;;;;;96.03;42.35;;;0.60;91.70;;;;;;5014054;28;20068;-77
2022/12/10 01:06:51;;;;;;;99.30;40.97;;;0.50;91.70;;;;;;5010649;28;20331;-77
2022/12/10 01:09:26;;;;;;;86.03;41.42;;;0.50;91.90;;;;;;5014066;28;20032;-77
2022/12/10 01:11:53;;;;;;;77.18;38.25;;;0.50;91.90;;;;;;5015402;28;20107;-77
2022/12/10 01:14:28;;;;;;;83.15;38.63;;;0.50;92.00;;;;;;5012054;28;20240;-77
2022/12/10 01:16:56;;;;;;;;;;;0.60;92.20;;;;;;5019257;28;20030;-77
2022/12/10 01:19:25;;;;;;;83.03;41.75;;;0.60;92.20;;;;;;5017549;28;19916;-77
2022/12/10 01:21:54;;;;;;;107.25;43.72;;;0.60;92.30;;;;;;5020958;28;20540;-78
2022/12/10 01:24:37;;;;;;;;;;;;;;;;;;;;;
2022/12/10 01:27:06;;;;;;;92.75;41.25;;;0.60;92.30;;;;;;5013348;28;20041;-77
2022/12/10 01:29:34;;;;;;;82.93;40.78;;;0.60;92.30;;;;;;5017612;28;20070;-77
2022/12/10 01:32:10;;;;;;;86.10;40.85;;;0.60;92.40;;;;;;5013042;28;20041;-76
2022/12/10 01:34:38;;;;;;;90.22;41.40;;;0.60;92.30;;;;;;5013806;28;20032;-77
2022/12/10 01:37:09;;;;;;;87.22;42.25;;;0.60;92.50;;;;;;5005562;28;20462;-77
2022/12/10 01:39:40;;;;;;;77.35;39.95;;;0.70;92.60;;;;;;5010250;28;20038;-76
2022/12/10 01:42:06;;;;;;;102.80;40.45;;;0.60;92.60;;;;;;5013399;28;20025;-76
2022/12/10 01:44:32;;;;;;;78.55;39.15;;;0.70;92.60;;;;;;5013525;28;20049;-77
2022/12/10 01:47:00;;;;;;;71.10;38.72;;;0.60;92.60;;;;;;5011422;28;20029;-77
2022/12/10 01:49:36;;;;;;;78.97;38.78;;;0.70;92.70;;;;;;5022437;28;20564;-78
2022/12/10 01:52:07;;;;;;;77.72;40.35;;;0.70;92.70;;;;;;5015326;28;20603;-78
2022/12/10 01:54:39;;;;;;;72.15;37.63;;;0.80;92.80;;;;;;5007764;28;20075;-77
2022/12/10 01:57:19;;;;;;;74.47;38.67;;;0.80;92.80;;;;;;5021073;28;20361;-76
2022/12/10 01:59:49;;;;;;;71.18;38.42;;;0.80;92.80;;;;;;5019602;28;20076;-77
2022/12/10 02:02:26;;;;;;;77.15;38.95;;;0.80;92.80;;;;;;5014258;28;20455;-77
2022/12/10 02:05:29;;;;;;;84.57;40.97;;;0.90;92.90;;;;;;5021201;28;20566;-77
2022/12/10 02:08:04;;;;;;;78.22;37.75;;;0.90;92.80;;;;;;5018361;28;20120;-77
2022/12/10 02:10:48;;;;;;;;;;;0.90;92.80;;;;;;5020658;28;20392;-76
2022/12/10 02:13:29;;;;;;;82.30;39.60;;;0.90;92.80;;;;;;5016771;28;19917;-76
2022/12/10 02:16:22;;;;;;;100.60;40.10;;;0.90;92.90;;;;;;5018943;28;20068;-77
2022/12/10 02:18:55;;;;;;;90.13;40.33;;;1.00;93.00;;;;;;5016666;28;20564;-77
2022/12/10 02:21:33;;;;;;;79.72;39.80;;;1.00;93.00;;;;;;5016716;28;20053;-76
2022/12/10 02:24:07;;;;;;;103.43;42.17;;;1.00;93.00;;;;;;5019249;28;20589;-77
2022/12/10 02:27:10;;;;;;;76.40;38.53;;;1.00;93.00;;;;;;5015998;28;20046;-75
2022/12/10 02:29:38;;;;;;;93.07;42.72;;;1.10;93.00;;;;;;5021634;28;20029;-76
2022/12/10 02:32:12;;;;;;;75.85;39.83;;;1.10;93.10;;;;;;5018025;28;20041;-77
2022/12/10 02:34:50;;;;;;;81.90;39.83;;;1.10;93.10;;;;;;5020243;28;20198;-77
2022/12/10 02:37:46;;;;;;;87.32;41.15;;;1.10;93.10;;;;;;5026042;28;20120;-77
2022/12/10 02:40:19;;;;;;;95.75;41.67;;;1.10;93.20;;;;;;5011380;28;20535;-77
2022/12/10 02:42:48;;;;;;;84.38;40.85;;;1.10;93.10;;;;;;5025611;28;20029;-77
2022/12/10 02:45:15;;;;;;;93.25;41.08;;;1.10;93.20;;;;;;5017784;28;20048;-78
2022/12/10 02:47:49;;;;;;;85.47;40.38;;;1.20;93.20;;;;;;5019439;28;20033;-77
2022/12/10 02:50:17;;;;;;;83.57;40.83;;;1.20;93.30;;;;;;5016722;28;20075;-79
2022/12/10 02:52:53;;;;;;;91.65;41.22;;;1.20;93.30;;;;;;5026529;28;20349;-77
2022/12/10 02:55:21;;;;;;;85.97;41.50;;;1.30;93.30;;;;;;5023940;28;20041;-77
2022/12/10 02:58:22;;;;;;;80.30;39.78;;;1.30;93.30;;;;;;5023297;28;20553;-78
2022/12/10 03:01:08;;;;;;;74.80;37.15;;;1.30;93.20;;;;;;5014797;28;20215;-77
2022/12/10 03:03:59;;;;;;;73.57;37.53;;;1.30;93.20;;;;;;5017304;28;20060;-76
2022/12/10 03:06:39;;;;;;;79.63;38.13;;;1.20;93.30;;;;;;5025675;28;20049;-77
2022/12/10 03:09:11;;;;;;;75.18;37.67;;;1.30;93.30;;;;;;5020120;28;20068;-76
2022/12/10 03:11:40;;;;;;;74.25;38.10;;;1.30;93.30;;;;;;5026174;28;20037;-77
2022/12/10 03:14:15;;;;;;;87.72;39.92;;;1.30;93.30;;;;;;5013082;28;20038;-76
2022/12/10 03:16:47;;;;;;;74.75;39.20;;;1.30;93.20;;;;;;5021309;28;20388;-76
2022/12/10 03:19:19;;;;;;;76.13;38.45;;;1.30;93.20;;;;;;5016377;28;20370;-75
2022/12/10 03:21:47;;;;;;;79.78;38.63;;;1.40;93.30;;;;;;5022110;28;20493;-75
2022/12/10 03:24:16;;;;;;;71.78;38.00;;;1.40;93.30;;;;;;5030669;28;20052;-75
2022/12/10 03:26:47;;;;;;;75.00;38.85;;;1.40;93.30;;;;;;5016980;28;20357;-77
2022/12/10 03:29:20;;;;;;;82.90;40.72;;;1.40;93.30;;;;;;5015673;28;20041;-75
2022/12/10 03:31:50;;;;;;;81.53;39.10;;;1.40;93.20;;;;;;5021690;28;20516;-77
2022/12/10 03:34:18;;;;;;;86.22;39.38;;;1.40;93.20;;;;;;5009799;28;20606;-76
2022/12/10 03:36:47;;;;;;;80.93;38.70;;;1.40;93.30;;;;;;5021109;28;20036;-76
2022/12/10 03:39:23;;;;;;;82.78;41.05;;;1.50;93.20;;;;;;5018374;28;20042;-75
2022/12/10 03:41:49;;;;;;;92.32;42.63;;;1.40;93.20;;;;;;5021961;28;20037;-76
2022/12/10 03:44:30;;;;;;;97.82;43.08;;;1.40;93.20;;;;;;5013771;28;20079;-76
2022/12/10 03:46:58;;;;;;;86.55;38.38;;;1.40;93.20;;;;;;5020590;28;20098;-77
2022/12/10 03:49:25;;;;;;;82.45;38.70;;;1.40;93.30;;;;;;5016843;28;20475;-77
2022/12/10 03:51:50;;;;;;;87.63;39.50;;;1.40;93.20;;;;;;5019569;28;20042;-76
2022/12/10 03:54:16;;;;;;;90.22;40.22;;;1.40;93.20;;;;;;5010813;28;20037;-77
2022/12/10 03:56:42;;;;;;;89.65;39.90;;;1.40;93.30;;;;;;5015666;28;20037;-77
2022/12/10 03:59:09;;;;;;;96.90;41.00;;;1.40;93.20;;;;;;5023729;28;20533;-76
2022/12/10 04:01:40;;;;;;;94.63;43.67;;;1.40;93.30;;;;;;5018846;28;20040;-77
2022/12/10 04:04:06;;;;;;;92.68;42.80;;;1.40;93.30;;;;;;5009551;28;20034;-76
2022/12/10 04:06:36;;;;;;;103.28;42.90;;;1.40;93.30;;;;;;5027287;28;20588;-76
2022/12/10 04:09:02;;;;;;;99.25;44.13;;;1.40;93.20;;;;;;5015315;28;20061;-76
2022/12/10 04:11:33;;;;;;;108.75;45.20;;;1.40;93.30;;;;;;5014967;28;20042;-76
2022/12/10 04:16:42;;;;;;;100.45;43.45;;;1.40;93.30;;;;;;5008699;28;20060;-76
2022/12/10 04:19:18;;;;;;;104.57;44.67;;;1.40;93.30;;;;;;5015606;28;20621;-76
2022/12/10 04:27:37;;;;;;;117.05;42.67;;;1.40;93.40;;;;;;5018945;28;20485;-76
2022/12/10 04:30:08;;;;;;;122.88;43.28;;;1.40;93.30;;;;;;5016051;28;20137;-76
2022/12/10 04:32:34;;;;;;;111.80;46.05;;;1.40;93.30;;;;;;5012817;28;20104;-77
2022/12/10 04:35:10;;;;;;;85.28;39.00;;;1.40;93.30;;;;;;5019574;28;20033;-76
2022/12/10 04:37:37;;;;;;;85.55;38.50;;;1.30;93.30;;;;;;5014782;28;20045;-76
2022/12/10 04:40:06;;;;;;;135.05;43.92;;;1.30;93.30;;;;;;5015114;28;20493;-77
2022/12/10 04:42:32;;;;;;;91.90;40.90;;;1.30;93.20;;;;;;5016836;28;20524;-76
2022/12/10 04:45:00;;;;;;;91.30;41.30;;;1.40;93.30;;;;;;5005061;28;20049;-77
2022/12/10 04:47:25;;;;;;;84.38;39.53;;;1.30;93.30;;;;;;5015336;28;20034;-76
2022/12/10 04:49:51;;;;;;;95.13;41.55;;;1.30;93.30;;;;;;5015536;28;20393;-77
2022/12/10 04:52:17;;;;;;;92.22;41.38;;;1.30;93.30;;;;;;5014382;28;20041;-76
2022/12/10 04:54:43;;;;;;;92.22;41.50;;;1.30;93.30;;;;;;5013283;28;20044;-76
2022/12/10 04:57:14;;;;;;;97.13;41.40;;;1.40;93.30;;;;;;5013112;28;20041;-76
2022/12/10 04:59:40;;;;;;;92.18;41.55;;;1.40;93.30;;;;;;5016971;28;20029;-76
2022/12/10 05:02:08;;;;;;;92.57;40.05;;;1.40;93.40;;;;;;5010579;28;20496;-76
2022/12/10 05:04:36;;;;;;;91.90;35.72;;;1.40;93.30;;;;;;5002038;28;20172;-76
2022/12/10 05:07:04;;;;;;;94.78;38.80;;;1.30;93.30;;;;;;5009187;28;20044;-76
2022/12/10 05:09:32;;;;;;;84.25;39.80;;;1.30;93.40;;;;;;5011866;28;20108;-77
2022/12/10 05:12:00;;;;;;;79.10;36.55;;;1.40;93.40;;;;;;5006867;28;20041;-77
2022/12/10 05:14:26;;;;;;;81.25;37.15;;;1.30;93.30;;;;;;5014877;28;20057;-76
2022/12/10 05:16:52;;;;;;;79.05;37.28;;;1.30;93.30;;;;;;5016081;28;20466;-75
2022/12/10 05:19:23;;;;;;;86.38;39.40;;;1.30;93.30;;;;;;5011588;28;20052;-75
2022/12/10 05:24:37;;;;;;;101.90;38.10;;;1.30;93.40;;;;;;5018914;28;20048;-76
2022/12/10 05:27:06;;;;;;;121.35;39.35;;;1.30;93.40;;;;;;5017513;28;20296;-76
2022/12/10 05:29:34;;;;;;;85.72;38.30;;;1.30;93.40;;;;;;5021145;28;20029;-76
2022/12/10 05:32:12;;;;;;;88.18;39.90;;;1.30;93.50;;;;;;5016859;28;20141;-76
2022/12/10 05:34:38;;;;;;;82.13;37.95;;;1.30;93.50;;;;;;5022003;28;20045;-75
2022/12/10 05:37:03;;;;;;;75.15;36.25;;;1.30;93.50;;;;;;5022418;28;20103;-75
2022/12/10 05:39:29;;;;;;;91.38;39.65;;;1.30;93.60;;;;;;5016583;28;20044;-75
2022/12/10 05:41:57;;;;;;;89.82;39.63;;;1.30;93.60;;;;;;5018495;28;20255;-75
2022/12/10 05:44:23;;;;;;;80.68;35.70;;;1.40;93.60;;;;;;5018746;28;20037;-75
2022/12/10 05:46:51;;;;;;;82.72;37.80;;;1.40;93.60;;;;;;5017083;28;20037;-75
2022/12/10 05:49:19;;;;;;;86.75;37.90;;;1.30;93.50;;;;;;5011717;28;20223;-75
2022/12/10 05:51:47;;;;;;;87.68;36.78;;;1.40;93.50;;;;;;5019720;28;20025;-75
2022/12/10 05:54:12;;;;;;;78.03;36.05;;;1.40;93.50;;;;;;5011888;28;20065;-75
2022/12/10 05:56:38;;;;;;;114.25;35.78;;;1.30;93.50;;;;;;5018845;28;20049;-76
2022/12/10 05:59:14;;;;;;;85.43;35.83;;;1.20;93.40;;;;;;5013153;28;20092;-75
2022/12/10 06:01:40;;;;;;;86.32;36.55;;;1.20;93.40;;;;;;5015154;28;20029;-75
2022/12/10 06:04:05;;;;;;;71.78;35.88;;;1.20;93.50;;;;;;5027938;28;20428;-76
2022/12/10 06:06:38;;;;;;;87.07;37.08;;;1.20;93.50;;;;;;5025282;28;20051;-78
2022/12/10 06:09:13;;;;;;;117.53;37.55;;;1.20;93.50;;;;;;5021947;28;20112;-77
2022/12/10 06:11:39;;;;;;;80.72;34.95;;;1.20;93.60;;;;;;5026917;28;20033;-77
2022/12/10 06:14:08;;;;;;;76.90;34.92;;;1.10;93.50;;;;;;5024377;28;20079;-76
2022/12/10 06:16:36;;;;;;;80.75;35.80;;;1.20;93.60;;;;;;5024783;28;20111;-76
2022/12/10 06:19:06;;;;;;;85.13;37.72;;;1.20;93.60;;;;;;5023539;28;20041;-75
2022/12/10 06:21:34;;;;;;;80.82;35.95;;;1.20;93.70;;;;;;5020262;28;20535;-75
2022/12/10 06:24:02;;;;;;;98.88;36.20;;;1.20;93.70;;;;;;5012571;28;20046;-75
2022/12/10 06:26:28;;;;;;;76.72;36.45;;;1.20;93.60;;;;;;5013204;28;20038;-75
2022/12/10 06:28:56;;;;;;;91.45;37.00;;;1.20;93.60;;;;;;5011441;28;20029;-75
2022/12/10 06:31:25;;;;;;;90.38;37.17;;;1.10;93.60;;;;;;5016980;28;20116;-75
2022/12/10 06:33:55;;;;;;;96.75;37.67;;;1.10;93.80;;;;;;5021413;28;20060;-75
2022/12/10 06:36:23;;;;;;;76.18;35.35;;;1.10;93.70;;;;;;5016679;28;20046;-75
2022/12/10 06:38:49;;;;;;;80.88;36.05;;;1.10;93.80;;;;;;5016953;28;20246;-75
2022/12/10 06:41:20;;;;;;;74.85;37.35;;;1.10;93.80;;;;;;5016404;28;20030;-75
2022/12/10 06:43:48;;;;;;;86.97;36.70;;;1.20;93.80;;;;;;5018087;28;20033;-75
2022/12/10 06:46:16;;;;;;;109.68;38.60;;;1.20;93.80;;;;;;5018994;28;20034;-74
2022/12/10 06:48:43;;;;;;;75.10;35.33;;;1.20;93.80;;;;;;5021453;28;20034;-76
2022/12/10 06:51:10;;;;;;;87.82;38.20;;;1.30;93.80;;;;;;5000692;28;20264;-76
2022/12/10 06:53:39;;;;;;;81.30;38.47;;;1.20;93.80;;;;;;5016394;28;20494;-76
2022/12/10 06:56:06;;;;;;;80.50;38.50;;;1.20;93.80;;;;;;5010521;28;20069;-76
2022/12/10 06:58:37;;;;;;;94.50;41.45;;;1.20;93.80;;;;;;5013455;28;20414;-76
2022/12/10 07:01:13;;;;;;;77.13;35.08;;;1.30;93.90;;;;;;5011328;28;20057;-78
2022/12/10 07:03:41;;;;;;;78.70;36.63;;;1.30;93.90;;;;;;5019073;28;20101;-77
2022/12/10 07:06:08;;;;;;;91.97;37.55;;;1.30;93.90;;;;;;5012685;28;20048;-76
2022/12/10 07:08:36;;;;;;;90.10;38.15;;;1.30;93.80;;;;;;5014439;28;20030;-75
2022/12/10 07:11:08;;;;;;;94.38;35.28;;;1.30;93.80;;;;;;5017956;28;20029;-75
2022/12/10 07:13:37;;;;;;;95.10;37.28;;;1.30;93.80;;;;;;5015800;28;20497;-75
2022/12/10 07:16:11;;;;;;;100.47;36.63;;;1.20;93.80;;;;;;5015530;28;20030;-75
2022/12/10 07:18:38;;;;;;;97.50;40.88;;;1.20;93.80;;;;;;5017473;28;20038;-74
2022/12/10 07:21:25;;;;;;;107.05;38.95;;;1.10;93.80;;;;;;5014209;28;20034;-75
2022/12/10 07:24:03;;;;;;;97.10;39.40;;;1.10;93.90;;;;;;5013549;28;20053;-76
2022/12/10 07:26:43;;;;;;;;;;;;;;;;;;;;;
2022/12/10 07:29:17;;;;;;;76.60;36.65;;;1.10;94.00;;;;;;5013427;28;20037;-74
2022/12/10 07:31:46;;;;;;;99.57;38.42;;;1.10;94.00;;;;;;5018404;28;20458;-76
2022/12/10 07:34:12;;;;;;;106.32;39.05;;;1.10;94.00;;;;;;5018282;28;20029;-76
2022/12/10 07:36:43;;;;;;;93.70;38.00;;;1.10;94.00;;;;;;5018599;28;20068;-76
2022/12/10 07:39:16;;;;;;;89.15;39.70;;;1.10;94.10;;;;;;5014354;28;20289;-76
2022/12/10 07:41:50;;;;;;;82.18;36.95;;;1.10;94.10;;;;;;5014462;28;20037;-76
2022/12/10 07:44:20;;;;;;;113.72;42.22;;;1.10;94.10;;;;;;5011784;28;20087;-75
2022/12/10 07:46:49;;;;;;;85.70;36.47;;;1.20;94.10;;;;;;5015401;28;20065;-76
2022/12/10 07:49:17;;;;;;;89.15;37.65;;;1.20;94.10;;;;;;5012649;28;20029;-76
2022/12/10 07:51:51;;;;;;;79.90;35.53;;;1.20;94.10;;;;;;5008699;28;20152;-76
2022/12/10 07:54:25;;;;;;;91.38;37.33;;;1.10;94.00;;;;;;5003015;28;20504;-77
2022/12/10 07:56:51;;;;;;;81.50;34.50;;;1.20;94.10;;;;;;5009454;28;20034;-75
2022/12/10 07:59:19;;;;;;;78.95;35.17;;;1.20;94.00;;;;;;5005372;28;20044;-75
2022/12/10 08:01:52;;;;;;;121.05;40.38;;;1.20;94.00;;;;;;5012442;28;20041;-75
2022/12/10 08:04:20;;;;;;;83.57;36.13;;;1.20;94.00;;;;;;5022806;28;20077;-76
2022/12/10 08:06:53;;;;;;;73.45;36.63;;;1.20;94.10;;;;;;5017809;28;20107;-76
2022/12/10 08:09:21;;;;;;;86.05;36.90;;;1.20;94.10;;;;;;5019937;28;20037;-76
2022/12/10 08:11:48;;;;;;;81.88;36.05;;;1.30;94.00;;;;;;5016698;28;20038;-76
2022/12/10 08:14:14;;;;;;;82.82;36.90;;;1.30;93.90;;;;;;5017081;28;20061;-77
2022/12/10 08:16:42;;;;;;;90.20;38.40;;;1.20;93.90;;;;;;5012779;28;20129;-77
2022/12/10 08:19:11;;;;;;;87.63;37.53;;;1.30;93.90;;;;;;5015243;28;20189;-76
2022/12/10 08:21:39;;;;;;;81.95;35.92;;;1.30;93.90;;;;;;5012758;28;20120;-77
2022/12/10 08:24:05;;;;;;;78.68;35.65;;;1.30;93.90;;;;;;5009900;28;20075;-76
2022/12/10 08:26:32;;;;;;;78.15;35.17;;;1.30;94.00;;;;;;5007505;28;20050;-76
2022/12/10 08:28:58;;;;;;;95.90;36.38;;;1.30;94.00;;;;;;5006373;28;20038;-76
2022/12/10 08:31:25;;;;;;;83.72;34.58;;;1.40;94.00;;;;;;5015382;28;20042;-77
2022/12/10 08:33:51;;;;;;;83.15;36.50;;;1.40;93.90;;;;;;5021087;28;20037;-77
2022/12/10 08:36:18;;;;;;;82.80;35.80;;;1.40;93.90;;;;;;5017834;28;20095;-77
2022/12/10 08:38:44;;;;;;;85.03;33.22;;;1.40;93.90;;;;;;5014497;28;20065;-76
2022/12/10 08:41:21;;;;;;;79.53;33.00;;;1.40;93.90;;;;;;5013967;28;20039;-77
2022/12/10 08:43:57;;;;;;;81.78;34.90;;;1.50;93.90;;;;;;5018240;28;20174;-77
2022/12/10 08:46:23;;;;;;;76.68;33.15;;;1.50;93.90;;;;;;5036364;28;20042;-76
2022/12/10 08:48:49;;;;;;;74.07;33.15;;;1.60;93.90;;;;;;5044801;28;20033;-76
2022/12/10 08:51:17;;;;;;;85.80;32.25;;;1.60;93.80;;;;;;5025890;28;20133;-79
2022/12/10 08:53:44;;;;;;;86.28;34.65;;;1.70;93.70;;;;;;5022187;28;20397;-80
2022/12/10 08:56:09;;;;;;;80.60;32.20;;;1.70;93.70;;;;;;5013822;28;20053;-77
2022/12/10 08:58:39;;;;;;;65.72;30.10;;;1.70;93.70;;;;;;5009913;28;20370;-77
2022/12/10 09:01:11;;;;;;;72.60;30.58;;;1.80;93.50;;;;;;5005750;28;20026;-76
2022/12/10 09:03:37;;;;;;;71.00;30.33;;;1.80;93.40;;;;;;5016955;28;20025;-77
2022/12/10 09:06:11;;;;;;;73.47;30.83;;;1.90;93.50;;;;;;5011837;28;20584;-78
2022/12/10 09:08:39;;;;;;;71.00;30.83;;;1.90;93.40;;;;;;5010810;28;20030;-75
2022/12/10 09:11:12;;;;;;;74.70;29.85;;;2.00;93.30;;;;;;5003431;28;20128;-75
2022/12/10 09:13:38;;;;;;;70.60;30.42;;;2.10;93.20;;;;;;5010484;28;20029;-78
2022/12/10 09:16:07;;;;;;;68.20;30.50;;;2.10;93.10;;;;;;5005643;28;20038;-77
2022/12/10 09:18:38;;;;;;;68.00;29.50;;;2.10;93.10;;;;;;5011996;28;20369;-77
2022/12/10 09:21:10;;;;;;;64.97;30.25;;;2.10;92.90;;;;;;5005662;28;20406;-77
2022/12/10 09:23:42;;;;;;;71.30;29.67;;;2.10;92.80;;;;;;5010872;28;20057;-75
2022/12/10 09:26:17;;;;;;;64.53;28.92;;;2.20;92.90;;;;;;5011580;28;20041;-77
2022/12/10 09:28:46;;;;;;;57.95;28.02;;;2.10;92.70;;;;;;5011693;28;20381;-77
2022/12/10 09:31:15;;;;;;;61.20;29.52;;;2.00;92.40;;;;;;5011190;28;20072;-77
2022/12/10 09:33:41;;;;;;;63.75;27.38;;;2.00;92.60;;;;;;5007504;28;20053;-75
2022/12/10 09:36:10;;;;;;;56.47;26.55;;;2.00;92.40;;;;;;5014575;28;20063;-76
2022/12/10 09:38:40;;;;;;;58.78;27.42;;;2.00;92.40;;;;;;5013178;28;20049;-76
2022/12/10 09:41:28;;;;;;;54.45;26.73;;;2.10;92.50;;;;;;5004843;28;20099;-77
2022/12/10 09:44:07;;;;;;;56.95;25.92;;;2.10;92.40;;;;;;5003222;28;20475;-77
2022/12/10 09:46:41;;;;;;;59.92;27.80;;;2.10;92.40;;;;;;5001528;28;20038;-76
2022/12/10 09:49:45;;;;;;;49.65;24.15;;;2.10;92.20;;;;;;5001581;28;20042;-77
2022/12/10 09:52:17;;;;;;;48.63;23.88;;;2.00;92.20;;;;;;4997080;28;20481;-76
2022/12/10 09:54:48;;;;;;;54.13;25.70;;;1.90;92.10;;;;;;4997708;28;20053;-75
2022/12/10 09:57:20;;;;;;;53.38;26.27;;;1.80;92.10;;;;;;4996004;28;20540;-76
2022/12/10 09:59:51;;;;;;;55.63;26.95;;;1.90;92.20;;;;;;4997545;28;20377;-75
2022/12/10 10:02:25;;;;;;;52.80;24.65;;;1.80;92.20;;;;;;5006504;28;20494;-76
2022/12/10 10:05:01;;;;;;;53.65;26.77;;;1.80;92.20;;;;;;5004547;28;20060;-76
2022/12/10 10:07:31;;;;;;;55.53;28.70;;;1.80;92.30;;;;;;5007366;28;20030;-76
2022/12/10 10:10:03;;;;;;;51.30;25.80;;;1.80;92.30;;;;;;5008823;28;20037;-75
2022/12/10 10:12:31;;;;;;;53.40;27.73;;;1.80;92.40;;;;;;5005259;28;20040;-76
2022/12/10 10:15:19;;;;;;;51.00;26.65;;;2.00;92.50;;;;;;5008822;28;20394;-75
2022/12/10 10:17:49;;;;;;;44.88;25.02;;;2.00;92.40;;;;;;5006651;28;20029;-75
2022/12/10 10:20:15;;;;;;;48.55;25.45;;;2.10;92.30;;;;;;5008438;28;20325;-77
2022/12/10 10:22:41;;;;;;;52.58;27.25;;;2.10;92.10;;;;;;5016064;28;20042;-75
2022/12/10 10:25:17;;;;;;;53.00;29.25;;;2.10;92.00;;;;;;5020580;28;20046;-76
2022/12/10 10:27:43;;;;;;;61.75;31.88;;;2.10;92.00;;;;;;5018116;28;20418;-77
2022/12/10 10:30:17;;;;;;;55.50;28.80;;;2.10;92.00;;;;;;5017367;28;20090;-77
2022/12/10 10:32:49;;;;;;;49.17;26.30;;;2.10;91.90;;;;;;5014648;28;20102;-76
2022/12/10 10:35:43;;;;;;;53.03;28.73;;;2.20;91.90;;;;;;5005310;28;20038;-75
2022/12/10 10:38:28;;;;;;;52.35;28.33;;;2.30;91.90;;;;;;5010750;28;20038;-76
2022/12/10 10:41:01;;;;;;;51.33;26.98;;;2.40;91.70;;;;;;5020166;28;20122;-76
2022/12/10 10:43:32;;;;;;;53.50;26.58;;;2.40;91.50;;;;;;5011110;28;20065;-76
2022/12/10 10:46:10;;;;;;;48.70;26.20;;;2.40;91.50;;;;;;5018391;28;20132;-75
2022/12/10 10:48:39;;;;;;;54.78;27.85;;;2.40;91.40;;;;;;5009296;28;20030;-75
2022/12/10 10:51:23;;;;;;;50.13;27.50;;;2.50;91.50;;;;;;5022782;28;20037;-76
2022/12/10 10:53:55;;;;;;;51.72;27.52;;;2.40;91.30;;;;;;5019963;28;20104;-77
2022/12/10 10:56:31;;;;;;;58.65;29.77;;;2.40;91.30;;;;;;5019937;28;20044;-75
2022/12/10 10:59:20;;;;;;;55.80;28.38;;;2.50;91.20;;;;;;5012744;28;20030;-75
2022/12/10 11:01:46;;;;;;;56.65;28.48;;;2.60;91.50;;;;;;5020501;28;20393;-74
2022/12/10 11:04:18;;;;;;;53.80;27.75;;;2.70;91.50;;;;;;5021931;28;20040;-76
2022/12/10 11:06:50;;;;;;;55.47;29.58;;;2.90;91.30;;;;;;5023938;28;20037;-77
2022/12/10 11:09:26;;;;;;;49.35;28.15;;;3.10;91.20;;;;;;5019102;28;20042;-76
2022/12/10 11:12:03;;;;;;;44.67;24.77;;;3.10;90.60;;;;;;5018202;28;20101;-77
2022/12/10 11:14:38;;;;;;;42.17;24.45;;;3.20;90.20;;;;;;5014139;28;20045;-76
2022/12/10 11:17:10;;;;;;;47.70;27.42;;;3.30;89.80;;;;;;5006313;28;20060;-75
2022/12/10 11:19:42;;;;;;;51.70;27.27;;;3.40;89.70;;;;;;5021730;28;20619;-75
2022/12/10 11:22:37;;;;;;;47.42;26.30;;;3.30;89.40;;;;;;5007412;28;20053;-76
2022/12/10 11:25:05;;;;;;;41.85;24.05;;;3.40;89.30;;;;;;4993090;28;20046;-77
2022/12/10 11:28:14;;;;;;;45.20;26.45;;;3.30;89.20;;;;;;5002487;28;20104;-77
2022/12/10 11:30:53;;;;;;;45.72;25.30;;;3.40;89.10;;;;;;5004737;28;20132;-76
2022/12/10 11:33:34;;;;;;;47.60;26.58;;;3.30;88.80;;;;;;5010257;28;20044;-75
2022/12/10 11:36:24;;;;;;;50.50;27.75;;;3.40;89.40;;;;;;5012652;28;20547;-76
2022/12/10 11:39:28;;;;;;;44.95;25.38;;;3.50;89.50;;;;;;5010408;28;20159;-76
2022/12/10 11:42:02;;;;;;;46.25;27.38;;;3.60;88.80;;;;;;5011542;28;20037;-76
2022/12/10 11:45:04;;;;;;;41.17;24.27;;;3.60;88.30;;;;;;5006387;28;20061;-75
2022/12/10 11:47:36;;;;;;;41.95;25.85;;;3.50;87.70;;;;;;5005708;28;20470;-76
2022/12/10 11:50:09;;;;;;;43.45;25.23;;;3.40;87.90;;;;;;5014816;28;20038;-78
2022/12/10 11:52:44;;;;;;;48.38;26.38;;;3.40;88.30;;;;;;5004836;28;20034;-77
2022/12/10 11:55:36;;;;;;;44.42;28.10;;;3.40;88.30;;;;;;5005456;28;20100;-76
2022/12/10 11:58:11;;;;;;;46.92;26.55;;;3.50;88.50;;;;;;5013032;28;20057;-75
2022/12/10 12:00:53;;;;;;;44.05;24.95;;;3.40;88.50;;;;;;5018296;28;20070;-76
2022/12/10 12:03:55;;;;;;;45.45;25.60;;;3.40;88.20;;;;;;5011805;28;20038;-75
2022/12/10 12:06:56;;;;;;;50.97;28.33;;;3.50;88.20;;;;;;5013042;28;20041;-77
2022/12/10 12:09:46;;;;;;;43.83;25.85;;;3.40;88.30;;;;;;5002357;28;20183;-75
2022/12/10 12:12:24;;;;;;;50.03;27.15;;;3.50;88.20;;;;;;5010855;28;20041;-75
2022/12/10 12:15:05;;;;;;;45.15;27.25;;;3.30;88.30;;;;;;5008289;28;20068;-75
2022/12/10 12:17:40;;;;;;;48.63;28.10;;;3.30;88.60;;;;;;5011924;28;20710;-76
2022/12/10 12:20:20;;;;;;;43.60;24.60;;;3.40;88.80;;;;;;5009981;28;20041;-75
2022/12/10 12:23:17;;;;;;;51.78;27.75;;;3.40;88.90;;;;;;5011160;28;20049;-76
2022/12/10 12:25:50;;;;;;;45.60;25.25;;;3.50;89.00;;;;;;5007063;28;20045;-77
2022/12/10 12:28:36;;;;;;;43.42;26.60;;;3.60;88.70;;;;;;5013317;28;20744;-76
2022/12/10 12:31:09;;;;;;;46.53;27.55;;;3.60;88.30;;;;;;5012775;28;20418;-76
2022/12/10 12:33:50;;;;;;;46.15;28.00;;;3.60;88.10;;;;;;5010243;28;20049;-77
2022/12/10 12:36:26;;;;;;;41.75;26.25;;;3.70;88.30;;;;;;5012692;28;20052;-77
2022/12/10 12:39:14;;;;;;;41.60;25.70;;;3.60;87.90;;;;;;5008621;28;20061;-77
2022/12/10 12:41:40;;;;;;;48.28;26.33;;;3.60;88.10;;;;;;5014317;28;20049;-77
2022/12/10 12:44:34;;;;;;;42.30;27.48;;;3.60;87.90;;;;;;5012253;28;20042;-78
2022/12/10 12:47:14;;;;;;;43.28;27.70;;;3.50;88.00;;;;;;5008765;28;20136;-77
2022/12/10 12:49:42;;;;;;;52.95;30.58;;;3.50;88.10;;;;;;5010326;28;20045;-78
2022/12/10 12:52:29;;;;;;;48.72;28.50;;;3.60;88.00;;;;;;5003523;28;20515;-77
2022/12/10 12:55:00;;;;;;;52.88;35.08;;;3.60;87.90;;;;;;5016881;28;20120;-78
2022/12/10 12:57:46;;;;;;;51.20;31.35;;;3.60;88.00;;;;;;5009497;28;20053;-78
2022/12/10 13:00:23;;;;;;;55.83;32.75;;;3.60;88.00;;;;;;5009226;28;20122;-77
2022/12/10 13:02:49;;;;;;;54.40;35.33;;;3.60;88.10;;;;;;5019427;28;20094;-78
2022/12/10 13:05:36;;;;;;;51.13;32.03;;;3.60;88.30;;;;;;5005674;28;20341;-78
2022/12/10 13:08:29;;;;;;;49.65;30.52;;;3.60;87.90;;;;;;5012611;28;20705;-81
2022/12/10 13:11:10;;;;;;;51.50;31.23;;;3.60;88.10;;;;;;5009472;28;21280;-81
2022/12/10 13:13:39;;;;;;;51.08;32.13;;;3.60;87.90;;;;;;5011033;28;20050;-82
2022/12/10 13:16:46;;;;;;;47.75;29.52;;;3.50;87.90;;;;;;5010697;28;20114;-81
2022/12/10 13:19:20;;;;;;;52.45;30.55;;;3.40;88.10;;;;;;5018593;28;20048;-83